sensor_id;sensor_type;location;lat;lon;timestamp;temperature;humidity
80279;DHT22;70683;52.492;13.416;2023-08-30T00:01:50;16.60;90.10
80279;DHT22;70683;52.492;13.416;2023-08-30T00:04:17;16.60;90.50
80279;DHT22;70683;52.492;13.416;2023-08-30T00:06:44;16.60;90.20
80279;DHT22;70683;52.492;13.416;2023-08-30T00:09:11;16.50;90.80
80279;DHT22;70683;52.492;13.416;2023-08-30T00:11:39;16.50;91.00
80279;DHT22;70683;52.492;13.416;2023-08-30T00:14:06;16.50;90.50
80279;DHT22;70683;52.492;13.416;2023-08-30T00:16:34;16.60;90.60
80279;DHT22;70683;52.492;13.416;2023-08-30T00:19:01;16.50;90.10
80279;DHT22;70683;52.492;13.416;2023-08-30T00:21:27;16.50;90.00
80279;DHT22;70683;52.492;13.416;2023-08-30T00:23:54;16.60;90.10
80279;DHT22;70683;52.492;13.416;2023-08-30T00:26:21;16.60;90.60
80279;DHT22;70683;52.492;13.416;2023-08-30T00:28:47;16.60;90.50
80279;DHT22;70683;52.492;13.416;2023-08-30T00:31:14;16.60;90.80
80279;DHT22;70683;52.492;13.416;2023-08-30T00:33:40;16.60;90.50
80279;DHT22;70683;52.492;13.416;2023-08-30T00:36:07;16.60;90.30
80279;DHT22;70683;52.492;13.416;2023-08-30T00:38:34;16.60;90.50
80279;DHT22;70683;52.492;13.416;2023-08-30T00:41:00;16.50;90.10
80279;DHT22;70683;52.492;13.416;2023-08-30T00:43:27;16.60;90.00
80279;DHT22;70683;52.492;13.416;2023-08-30T00:45:53;16.60;90.00
80279;DHT22;70683;52.492;13.416;2023-08-30T00:48:21;16.60;90.50
80279;DHT22;70683;52.492;13.416;2023-08-30T00:50:48;16.60;90.30
80279;DHT22;70683;52.492;13.416;2023-08-30T00:53:14;16.60;90.60
80279;DHT22;70683;52.492;13.416;2023-08-30T00:55:42;16.50;90.20
80279;DHT22;70683;52.492;13.416;2023-08-30T00:58:10;16.50;90.30
80279;DHT22;70683;52.492;13.416;2023-08-30T01:00:39;16.50;90.30
80279;DHT22;70683;52.492;13.416;2023-08-30T01:03:06;16.50;90.50
80279;DHT22;70683;52.492;13.416;2023-08-30T01:05:34;16.50;90.10
80279;DHT22;70683;52.492;13.416;2023-08-30T01:08:01;16.50;90.60
80279;DHT22;70683;52.492;13.416;2023-08-30T01:10:36;16.50;90.60
80279;DHT22;70683;52.492;13.416;2023-08-30T01:13:05;16.50;90.60
80279;DHT22;70683;52.492;13.416;2023-08-30T01:15:31;16.50;90.50
80279;DHT22;70683;52.492;13.416;2023-08-30T01:17:59;16.50;90.20
80279;DHT22;70683;52.492;13.416;2023-08-30T01:20:27;16.50;90.60
80279;DHT22;70683;52.492;13.416;2023-08-30T01:22:58;16.50;90.50
80279;DHT22;70683;52.492;13.416;2023-08-30T01:25:38;16.60;89.80
80279;DHT22;70683;52.492;13.416;2023-08-30T01:28:04;16.60;89.90
80279;DHT22;70683;52.492;13.416;2023-08-30T01:30:34;16.60;89.00
80279;DHT22;70683;52.492;13.416;2023-08-30T01:33:04;16.60;89.20
80279;DHT22;70683;52.492;13.416;2023-08-30T01:35:33;16.60;88.50
80279;DHT22;70683;52.492;13.416;2023-08-30T01:38:03;16.50;90.40
80279;DHT22;70683;52.492;13.416;2023-08-30T01:40:34;16.50;90.10
80279;DHT22;70683;52.492;13.416;2023-08-30T01:43:02;16.50;90.10
80279;DHT22;70683;52.492;13.416;2023-08-30T01:45:33;16.50;89.90
80279;DHT22;70683;52.492;13.416;2023-08-30T01:48:02;16.60;89.10
80279;DHT22;70683;52.492;13.416;2023-08-30T01:50:29;16.50;88.80
80279;DHT22;70683;52.492;13.416;2023-08-30T01:52:57;16.50;88.90
80279;DHT22;70683;52.492;13.416;2023-08-30T01:55:25;16.40;88.80
80279;DHT22;70683;52.492;13.416;2023-08-30T01:57:53;16.40;89.00
80279;DHT22;70683;52.492;13.416;2023-08-30T02:00:19;16.30;89.60
80279;DHT22;70683;52.492;13.416;2023-08-30T02:02:47;16.30;89.10
80279;DHT22;70683;52.492;13.416;2023-08-30T02:05:14;16.30;89.40
80279;DHT22;70683;52.492;13.416;2023-08-30T02:08:05;16.40;89.20
80279;DHT22;70683;52.492;13.416;2023-08-30T02:10:34;16.40;88.70
80279;DHT22;70683;52.492;13.416;2023-08-30T02:13:04;16.40;88.60
80279;DHT22;70683;52.492;13.416;2023-08-30T02:15:33;16.30;88.90
80279;DHT22;70683;52.492;13.416;2023-08-30T02:18:03;16.30;89.00
80279;DHT22;70683;52.492;13.416;2023-08-30T02:20:32;16.30;89.20
80279;DHT22;70683;52.492;13.416;2023-08-30T02:22:59;16.20;89.50
80279;DHT22;70683;52.492;13.416;2023-08-30T02:25:25;16.30;90.00
80279;DHT22;70683;52.492;13.416;2023-08-30T02:27:52;16.30;89.70
80279;DHT22;70683;52.492;13.416;2023-08-30T02:30:19;16.30;89.70
80279;DHT22;70683;52.492;13.416;2023-08-30T02:32:46;16.30;89.20
80279;DHT22;70683;52.492;13.416;2023-08-30T02:35:12;16.40;89.00
80279;DHT22;70683;52.492;13.416;2023-08-30T02:37:39;16.30;88.40
80279;DHT22;70683;52.492;13.416;2023-08-30T02:40:08;16.30;88.80
80279;DHT22;70683;52.492;13.416;2023-08-30T02:42:35;16.30;89.10
80279;DHT22;70683;52.492;13.416;2023-08-30T02:45:01;16.30;88.90
80279;DHT22;70683;52.492;13.416;2023-08-30T02:47:28;16.40;87.50
80279;DHT22;70683;52.492;13.416;2023-08-30T02:49:55;16.30;87.90
80279;DHT22;70683;52.492;13.416;2023-08-30T02:52:21;16.30;88.00
80279;DHT22;70683;52.492;13.416;2023-08-30T02:54:48;16.30;88.10
80279;DHT22;70683;52.492;13.416;2023-08-30T02:57:14;16.30;88.30
80279;DHT22;70683;52.492;13.416;2023-08-30T02:59:41;16.30;88.20
80279;DHT22;70683;52.492;13.416;2023-08-30T03:02:07;16.30;87.90
80279;DHT22;70683;52.492;13.416;2023-08-30T03:04:34;16.30;88.00
80279;DHT22;70683;52.492;13.416;2023-08-30T03:07:02;16.30;87.90
80279;DHT22;70683;52.492;13.416;2023-08-30T03:09:28;16.20;88.10
80279;DHT22;70683;52.492;13.416;2023-08-30T03:11:55;16.20;88.30
80279;DHT22;70683;52.492;13.416;2023-08-30T03:14:21;16.20;87.90
80279;DHT22;70683;52.492;13.416;2023-08-30T03:16:48;16.20;87.90
80279;DHT22;70683;52.492;13.416;2023-08-30T03:19:15;16.10;87.60
80279;DHT22;70683;52.492;13.416;2023-08-30T03:21:43;16.10;88.10
80279;DHT22;70683;52.492;13.416;2023-08-30T03:24:10;16.10;88.00
80279;DHT22;70683;52.492;13.416;2023-08-30T03:26:36;16.10;87.90
80279;DHT22;70683;52.492;13.416;2023-08-30T03:29:03;16.10;88.20
80279;DHT22;70683;52.492;13.416;2023-08-30T03:31:29;16.10;88.40
80279;DHT22;70683;52.492;13.416;2023-08-30T03:33:56;16.10;87.80
80279;DHT22;70683;52.492;13.416;2023-08-30T03:36:23;16.00;88.10
80279;DHT22;70683;52.492;13.416;2023-08-30T03:38:49;16.00;88.30
80279;DHT22;70683;52.492;13.416;2023-08-30T03:41:16;15.90;88.50
80279;DHT22;70683;52.492;13.416;2023-08-30T03:43:42;15.80;89.00
80279;DHT22;70683;52.492;13.416;2023-08-30T03:46:10;15.80;89.20
80279;DHT22;70683;52.492;13.416;2023-08-30T03:48:38;15.90;89.40
80279;DHT22;70683;52.492;13.416;2023-08-30T03:51:04;15.90;89.50
80279;DHT22;70683;52.492;13.416;2023-08-30T03:53:31;15.90;89.30
80279;DHT22;70683;52.492;13.416;2023-08-30T03:55:58;15.90;88.90
80279;DHT22;70683;52.492;13.416;2023-08-30T03:58:25;16.00;88.70
80279;DHT22;70683;52.492;13.416;2023-08-30T04:00:52;15.90;89.00
80279;DHT22;70683;52.492;13.416;2023-08-30T04:03:18;16.00;89.00
80279;DHT22;70683;52.492;13.416;2023-08-30T04:05:45;16.00;88.90
80279;DHT22;70683;52.492;13.416;2023-08-30T04:08:12;16.00;89.20
80279;DHT22;70683;52.492;13.416;2023-08-30T04:10:40;16.00;88.60
80279;DHT22;70683;52.492;13.416;2023-08-30T04:13:08;16.10;88.80
80279;DHT22;70683;52.492;13.416;2023-08-30T04:15:36;16.00;88.40
80279;DHT22;70683;52.492;13.416;2023-08-30T04:18:04;16.00;88.50
80279;DHT22;70683;52.492;13.416;2023-08-30T04:20:32;16.00;88.90
80279;DHT22;70683;52.492;13.416;2023-08-30T04:23:00;16.10;88.50
80279;DHT22;70683;52.492;13.416;2023-08-30T04:25:28;16.10;87.80
80279;DHT22;70683;52.492;13.416;2023-08-30T04:27:56;16.10;88.20
80279;DHT22;70683;52.492;13.416;2023-08-30T04:30:22;16.00;88.20
80279;DHT22;70683;52.492;13.416;2023-08-30T04:32:49;16.00;88.30
80279;DHT22;70683;52.492;13.416;2023-08-30T04:35:16;15.90;88.60
80279;DHT22;70683;52.492;13.416;2023-08-30T04:37:42;16.00;88.20
80279;DHT22;70683;52.492;13.416;2023-08-30T04:40:10;16.00;88.30
80279;DHT22;70683;52.492;13.416;2023-08-30T04:42:37;16.10;88.40
80279;DHT22;70683;52.492;13.416;2023-08-30T04:45:06;16.10;87.80
80279;DHT22;70683;52.492;13.416;2023-08-30T04:47:33;16.10;88.20
80279;DHT22;70683;52.492;13.416;2023-08-30T04:50:00;16.10;88.00
80279;DHT22;70683;52.492;13.416;2023-08-30T04:52:26;16.10;88.10
80279;DHT22;70683;52.492;13.416;2023-08-30T04:54:53;16.20;88.00
80279;DHT22;70683;52.492;13.416;2023-08-30T04:57:20;16.20;87.70
80279;DHT22;70683;52.492;13.416;2023-08-30T04:59:47;16.30;87.10
80279;DHT22;70683;52.492;13.416;2023-08-30T05:02:14;16.30;87.50
80279;DHT22;70683;52.492;13.416;2023-08-30T05:04:41;16.40;87.30
80279;DHT22;70683;52.492;13.416;2023-08-30T05:07:08;16.40;87.20
80279;DHT22;70683;52.492;13.416;2023-08-30T05:09:34;16.50;87.00
80279;DHT22;70683;52.492;13.416;2023-08-30T05:12:01;16.50;86.90
80279;DHT22;70683;52.492;13.416;2023-08-30T05:14:28;16.60;86.80
80279;DHT22;70683;52.492;13.416;2023-08-30T05:16:54;16.70;86.60
80279;DHT22;70683;52.492;13.416;2023-08-30T05:19:21;16.70;85.90
80279;DHT22;70683;52.492;13.416;2023-08-30T05:21:48;16.80;85.60
80279;DHT22;70683;52.492;13.416;2023-08-30T05:24:17;16.80;85.60
80279;DHT22;70683;52.492;13.416;2023-08-30T05:26:44;16.90;85.50
80279;DHT22;70683;52.492;13.416;2023-08-30T05:29:13;17.00;85.10
80279;DHT22;70683;52.492;13.416;2023-08-30T05:31:41;17.00;84.80
80279;DHT22;70683;52.492;13.416;2023-08-30T05:34:08;17.10;84.60
80279;DHT22;70683;52.492;13.416;2023-08-30T05:36:34;17.20;84.50
80279;DHT22;70683;52.492;13.416;2023-08-30T05:39:01;17.20;84.40
80279;DHT22;70683;52.492;13.416;2023-08-30T05:41:29;17.30;84.20
80279;DHT22;70683;52.492;13.416;2023-08-30T05:43:56;17.40;83.40
80279;DHT22;70683;52.492;13.416;2023-08-30T05:46:23;17.50;83.50
80279;DHT22;70683;52.492;13.416;2023-08-30T05:48:49;17.50;83.20
80279;DHT22;70683;52.492;13.416;2023-08-30T05:51:16;17.60;82.90
80279;DHT22;70683;52.492;13.416;2023-08-30T05:53:43;17.60;82.80
80279;DHT22;70683;52.492;13.416;2023-08-30T05:56:09;17.60;82.20
80279;DHT22;70683;52.492;13.416;2023-08-30T05:58:36;17.70;82.60
80279;DHT22;70683;52.492;13.416;2023-08-30T06:01:04;17.70;82.50
80279;DHT22;70683;52.492;13.416;2023-08-30T06:03:33;17.80;82.30
80279;DHT22;70683;52.492;13.416;2023-08-30T06:06:01;17.80;81.70
80279;DHT22;70683;52.492;13.416;2023-08-30T06:08:27;17.80;81.60
80279;DHT22;70683;52.492;13.416;2023-08-30T06:10:54;17.90;80.50
80279;DHT22;70683;52.492;13.416;2023-08-30T06:13:22;18.00;80.20
80279;DHT22;70683;52.492;13.416;2023-08-30T06:15:51;18.00;80.30
80279;DHT22;70683;52.492;13.416;2023-08-30T06:18:18;18.00;80.30
80279;DHT22;70683;52.492;13.416;2023-08-30T06:20:45;18.00;80.10
80279;DHT22;70683;52.492;13.416;2023-08-30T06:23:14;18.00;80.00
80279;DHT22;70683;52.492;13.416;2023-08-30T06:25:41;18.00;79.70
80279;DHT22;70683;52.492;13.416;2023-08-30T06:28:08;18.00;79.70
80279;DHT22;70683;52.492;13.416;2023-08-30T06:30:34;18.00;80.90
80279;DHT22;70683;52.492;13.416;2023-08-30T06:33:01;18.10;80.40
80279;DHT22;70683;52.492;13.416;2023-08-30T06:35:28;18.20;79.40
80279;DHT22;70683;52.492;13.416;2023-08-30T06:37:55;18.30;79.00
80279;DHT22;70683;52.492;13.416;2023-08-30T06:40:21;18.40;80.00
80279;DHT22;70683;52.492;13.416;2023-08-30T06:42:48;18.40;78.10
80279;DHT22;70683;52.492;13.416;2023-08-30T06:45:15;18.50;77.90
80279;DHT22;70683;52.492;13.416;2023-08-30T06:47:42;18.50;77.40
80279;DHT22;70683;52.492;13.416;2023-08-30T06:50:09;18.60;78.30
80279;DHT22;70683;52.492;13.416;2023-08-30T06:52:36;18.70;77.80
80279;DHT22;70683;52.492;13.416;2023-08-30T06:55:03;18.80;76.90
80279;DHT22;70683;52.492;13.416;2023-08-30T06:57:29;18.70;75.90
80279;DHT22;70683;52.492;13.416;2023-08-30T06:59:56;18.80;75.80
80279;DHT22;70683;52.492;13.416;2023-08-30T07:02:25;18.70;75.50
80279;DHT22;70683;52.492;13.416;2023-08-30T07:04:52;18.80;75.80
80279;DHT22;70683;52.492;13.416;2023-08-30T07:07:19;18.90;75.20
80279;DHT22;70683;52.492;13.416;2023-08-30T07:09:45;18.90;75.30
80279;DHT22;70683;52.492;13.416;2023-08-30T07:12:12;19.00;75.30
80279;DHT22;70683;52.492;13.416;2023-08-30T07:14:39;19.00;74.90
80279;DHT22;70683;52.492;13.416;2023-08-30T07:17:05;19.10;75.00
80279;DHT22;70683;52.492;13.416;2023-08-30T07:19:34;19.20;73.80
80279;DHT22;70683;52.492;13.416;2023-08-30T07:22:00;19.30;74.00
80279;DHT22;70683;52.492;13.416;2023-08-30T07:24:27;19.30;73.70
80279;DHT22;70683;52.492;13.416;2023-08-30T07:26:54;19.40;73.20
80279;DHT22;70683;52.492;13.416;2023-08-30T07:29:20;19.50;73.00
80279;DHT22;70683;52.492;13.416;2023-08-30T07:31:47;19.50;72.40
80279;DHT22;70683;52.492;13.416;2023-08-30T07:34:16;19.60;72.30
80279;DHT22;70683;52.492;13.416;2023-08-30T07:36:43;19.70;71.20
80279;DHT22;70683;52.492;13.416;2023-08-30T07:39:09;19.80;71.40
80279;DHT22;70683;52.492;13.416;2023-08-30T07:41:36;19.80;71.90
80279;DHT22;70683;52.492;13.416;2023-08-30T07:44:03;19.90;71.50
80279;DHT22;70683;52.492;13.416;2023-08-30T07:46:30;19.80;71.40
80279;DHT22;70683;52.492;13.416;2023-08-30T07:48:57;19.90;72.00
80279;DHT22;70683;52.492;13.416;2023-08-30T07:51:23;20.00;71.80
80279;DHT22;70683;52.492;13.416;2023-08-30T07:53:50;20.00;71.80
80279;DHT22;70683;52.492;13.416;2023-08-30T07:56:17;20.10;70.90
80279;DHT22;70683;52.492;13.416;2023-08-30T07:58:43;20.00;70.10
80279;DHT22;70683;52.492;13.416;2023-08-30T08:01:10;19.90;70.70
80279;DHT22;70683;52.492;13.416;2023-08-30T08:03:36;19.90;71.50
80279;DHT22;70683;52.492;13.416;2023-08-30T08:06:03;19.90;71.60
80279;DHT22;70683;52.492;13.416;2023-08-30T08:08:29;20.00;71.40
80279;DHT22;70683;52.492;13.416;2023-08-30T08:10:56;20.10;71.10
80279;DHT22;70683;52.492;13.416;2023-08-30T08:13:23;20.10;70.50
80279;DHT22;70683;52.492;13.416;2023-08-30T08:15:49;20.10;70.40
80279;DHT22;70683;52.492;13.416;2023-08-30T08:18:16;20.20;69.90
80279;DHT22;70683;52.492;13.416;2023-08-30T08:20:43;20.30;68.80
80279;DHT22;70683;52.492;13.416;2023-08-30T08:23:10;20.30;68.70
80279;DHT22;70683;52.492;13.416;2023-08-30T08:25:36;20.30;68.20
80279;DHT22;70683;52.492;13.416;2023-08-30T08:28:03;20.20;67.70
80279;DHT22;70683;52.492;13.416;2023-08-30T08:30:30;20.30;68.60
80279;DHT22;70683;52.492;13.416;2023-08-30T08:32:57;20.30;68.70
80279;DHT22;70683;52.492;13.416;2023-08-30T08:35:25;20.40;66.90
80279;DHT22;70683;52.492;13.416;2023-08-30T08:37:51;20.40;66.20
80279;DHT22;70683;52.492;13.416;2023-08-30T08:40:18;20.40;66.40
80279;DHT22;70683;52.492;13.416;2023-08-30T08:42:45;20.50;66.40
80279;DHT22;70683;52.492;13.416;2023-08-30T08:45:16;20.60;67.50
80279;DHT22;70683;52.492;13.416;2023-08-30T08:47:45;20.60;65.20
80279;DHT22;70683;52.492;13.416;2023-08-30T08:50:12;20.70;65.40
80279;DHT22;70683;52.492;13.416;2023-08-30T08:52:40;20.80;65.40
80279;DHT22;70683;52.492;13.416;2023-08-30T08:55:07;21.00;65.40
80279;DHT22;70683;52.492;13.416;2023-08-30T08:57:34;21.20;64.40
80279;DHT22;70683;52.492;13.416;2023-08-30T09:00:02;21.40;64.30
80279;DHT22;70683;52.492;13.416;2023-08-30T09:02:29;21.60;64.40
80279;DHT22;70683;52.492;13.416;2023-08-30T09:04:57;21.70;63.70
80279;DHT22;70683;52.492;13.416;2023-08-30T09:07:27;21.80;63.20
80279;DHT22;70683;52.492;13.416;2023-08-30T09:09:55;22.00;62.80
80279;DHT22;70683;52.492;13.416;2023-08-30T09:12:22;22.20;62.00
80279;DHT22;70683;52.492;13.416;2023-08-30T09:14:56;22.30;61.40
80279;DHT22;70683;52.492;13.416;2023-08-30T09:17:23;22.60;60.30
80279;DHT22;70683;52.492;13.416;2023-08-30T09:19:49;22.70;60.20
80279;DHT22;70683;52.492;13.416;2023-08-30T09:22:16;22.90;59.30
80279;DHT22;70683;52.492;13.416;2023-08-30T09:24:43;23.20;59.10
80279;DHT22;70683;52.492;13.416;2023-08-30T09:27:10;23.70;56.70
80279;DHT22;70683;52.492;13.416;2023-08-30T09:29:37;24.20;55.60
80279;DHT22;70683;52.492;13.416;2023-08-30T09:32:04;24.70;53.60
80279;DHT22;70683;52.492;13.416;2023-08-30T09:34:30;24.90;53.50
80279;DHT22;70683;52.492;13.416;2023-08-30T09:36:57;25.20;53.00
80279;DHT22;70683;52.492;13.416;2023-08-30T09:39:26;25.70;51.40
80279;DHT22;70683;52.492;13.416;2023-08-30T09:41:54;26.10;50.60
80279;DHT22;70683;52.492;13.416;2023-08-30T09:44:21;26.30;48.50
80279;DHT22;70683;52.492;13.416;2023-08-30T09:46:54;26.10;48.60
80279;DHT22;70683;52.492;13.416;2023-08-30T09:49:23;25.80;48.90
80279;DHT22;70683;52.492;13.416;2023-08-30T09:51:51;25.90;48.70
80279;DHT22;70683;52.492;13.416;2023-08-30T09:54:19;26.90;48.30
80279;DHT22;70683;52.492;13.416;2023-08-30T09:56:47;27.90;45.70
80279;DHT22;70683;52.492;13.416;2023-08-30T09:59:14;28.60;42.40
80279;DHT22;70683;52.492;13.416;2023-08-30T10:01:42;28.50;41.30
80279;DHT22;70683;52.492;13.416;2023-08-30T10:04:10;28.10;41.90
80279;DHT22;70683;52.492;13.416;2023-08-30T10:06:38;27.60;44.30
80279;DHT22;70683;52.492;13.416;2023-08-30T10:09:07;27.30;44.00
80279;DHT22;70683;52.492;13.416;2023-08-30T10:11:36;26.90;45.20
80279;DHT22;70683;52.492;13.416;2023-08-30T10:14:06;27.00;45.60
80279;DHT22;70683;52.492;13.416;2023-08-30T10:16:43;27.10;45.40
80279;DHT22;70683;52.492;13.416;2023-08-30T10:19:16;27.60;44.80
80279;DHT22;70683;52.492;13.416;2023-08-30T10:21:44;27.80;43.00
80279;DHT22;70683;52.492;13.416;2023-08-30T10:24:14;27.90;43.80
80279;DHT22;70683;52.492;13.416;2023-08-30T10:26:44;28.30;42.20
80279;DHT22;70683;52.492;13.416;2023-08-30T10:29:14;29.10;41.50
80279;DHT22;70683;52.492;13.416;2023-08-30T10:31:42;30.00;39.20
80279;DHT22;70683;52.492;13.416;2023-08-30T10:34:14;30.40;37.90
80279;DHT22;70683;52.492;13.416;2023-08-30T10:36:43;30.30;38.20
80279;DHT22;70683;52.492;13.416;2023-08-30T10:39:13;30.30;37.60
80279;DHT22;70683;52.492;13.416;2023-08-30T10:44:19;29.70;38.40
80279;DHT22;70683;52.492;13.416;2023-08-30T10:46:52;29.30;39.60
80279;DHT22;70683;52.492;13.416;2023-08-30T10:49:19;29.00;39.50
80279;DHT22;70683;52.492;13.416;2023-08-30T10:51:54;28.80;40.00
80279;DHT22;70683;52.492;13.416;2023-08-30T10:54:22;28.80;40.90
80279;DHT22;70683;52.492;13.416;2023-08-30T10:56:56;28.90;39.20
80279;DHT22;70683;52.492;13.416;2023-08-30T10:59:25;29.00;40.50
80279;DHT22;70683;52.492;13.416;2023-08-30T11:01:52;29.20;40.00
80279;DHT22;70683;52.492;13.416;2023-08-30T11:04:20;29.70;39.20
80279;DHT22;70683;52.492;13.416;2023-08-30T11:06:50;30.00;38.20
80279;DHT22;70683;52.492;13.416;2023-08-30T11:09:19;29.80;38.00
80279;DHT22;70683;52.492;13.416;2023-08-30T11:11:47;29.20;38.90
80279;DHT22;70683;52.492;13.416;2023-08-30T11:14:15;28.70;39.70
80279;DHT22;70683;52.492;13.416;2023-08-30T11:16:42;28.40;40.10
80279;DHT22;70683;52.492;13.416;2023-08-30T11:19:10;28.50;39.80
80279;DHT22;70683;52.492;13.416;2023-08-30T11:21:40;28.70;39.00
80279;DHT22;70683;52.492;13.416;2023-08-30T11:24:08;28.60;38.50
80279;DHT22;70683;52.492;13.416;2023-08-30T11:26:35;28.50;37.80
80279;DHT22;70683;52.492;13.416;2023-08-30T11:29:10;28.70;38.50
80279;DHT22;70683;52.492;13.416;2023-08-30T11:31:37;28.70;37.20
80279;DHT22;70683;52.492;13.416;2023-08-30T11:34:04;28.40;38.60
80279;DHT22;70683;52.492;13.416;2023-08-30T11:36:32;28.30;37.80
80279;DHT22;70683;52.492;13.416;2023-08-30T11:38:59;28.10;38.70
80279;DHT22;70683;52.492;13.416;2023-08-30T11:41:26;28.10;39.30
80279;DHT22;70683;52.492;13.416;2023-08-30T11:43:54;28.40;37.70
80279;DHT22;70683;52.492;13.416;2023-08-30T11:46:21;28.40;38.00
80279;DHT22;70683;52.492;13.416;2023-08-30T11:48:50;28.30;36.90
80279;DHT22;70683;52.492;13.416;2023-08-30T11:51:18;27.90;38.10
80279;DHT22;70683;52.492;13.416;2023-08-30T11:53:45;27.60;39.40
80279;DHT22;70683;52.492;13.416;2023-08-30T11:56:13;27.20;40.90
80279;DHT22;70683;52.492;13.416;2023-08-30T11:58:40;27.00;41.60
80279;DHT22;70683;52.492;13.416;2023-08-30T12:01:07;26.60;41.40
80279;DHT22;70683;52.492;13.416;2023-08-30T12:03:34;26.30;42.70
80279;DHT22;70683;52.492;13.416;2023-08-30T12:06:02;26.00;42.50
80279;DHT22;70683;52.492;13.416;2023-08-30T12:08:31;25.60;43.40
80279;DHT22;70683;52.492;13.416;2023-08-30T12:10:58;25.40;44.80
80279;DHT22;70683;52.492;13.416;2023-08-30T12:13:28;25.10;44.50
80279;DHT22;70683;52.492;13.416;2023-08-30T12:15:57;25.00;45.00
80279;DHT22;70683;52.492;13.416;2023-08-30T12:18:25;24.70;44.60
80279;DHT22;70683;52.492;13.416;2023-08-30T12:20:55;24.50;44.50
80279;DHT22;70683;52.492;13.416;2023-08-30T12:23:22;24.30;44.80
80279;DHT22;70683;52.492;13.416;2023-08-30T12:25:57;24.30;46.60
80279;DHT22;70683;52.492;13.416;2023-08-30T12:28:26;24.20;47.30
80279;DHT22;70683;52.492;13.416;2023-08-30T12:30:53;24.30;46.90
80279;DHT22;70683;52.492;13.416;2023-08-30T12:33:20;24.30;47.50
80279;DHT22;70683;52.492;13.416;2023-08-30T12:35:48;24.30;47.70
80279;DHT22;70683;52.492;13.416;2023-08-30T12:38:14;24.30;47.20
80279;DHT22;70683;52.492;13.416;2023-08-30T12:40:46;24.20;46.80
80279;DHT22;70683;52.492;13.416;2023-08-30T12:43:15;24.20;46.70
80279;DHT22;70683;52.492;13.416;2023-08-30T12:45:43;24.10;46.60
80279;DHT22;70683;52.492;13.416;2023-08-30T12:48:11;24.10;46.90
80279;DHT22;70683;52.492;13.416;2023-08-30T12:50:40;24.10;46.70
80279;DHT22;70683;52.492;13.416;2023-08-30T12:53:07;24.00;47.20
80279;DHT22;70683;52.492;13.416;2023-08-30T12:55:35;24.00;48.10
80279;DHT22;70683;52.492;13.416;2023-08-30T12:58:02;24.10;48.40
80279;DHT22;70683;52.492;13.416;2023-08-30T13:00:28;24.20;48.20
80279;DHT22;70683;52.492;13.416;2023-08-30T13:02:55;24.40;48.20
80279;DHT22;70683;52.492;13.416;2023-08-30T13:05:22;24.60;47.00
80279;DHT22;70683;52.492;13.416;2023-08-30T13:07:49;25.00;46.90
80279;DHT22;70683;52.492;13.416;2023-08-30T13:10:15;25.30;45.70
80279;DHT22;70683;52.492;13.416;2023-08-30T13:12:43;25.70;45.40
80279;DHT22;70683;52.492;13.416;2023-08-30T13:15:10;26.40;44.00
80279;DHT22;70683;52.492;13.416;2023-08-30T13:17:37;27.00;43.20
80279;DHT22;70683;52.492;13.416;2023-08-30T13:20:05;27.10;42.70
80279;DHT22;70683;52.492;13.416;2023-08-30T13:22:32;27.40;42.50
80279;DHT22;70683;52.492;13.416;2023-08-30T13:24:58;27.60;42.20
80279;DHT22;70683;52.492;13.416;2023-08-30T13:27:25;28.30;40.90
80279;DHT22;70683;52.492;13.416;2023-08-30T13:29:51;29.00;38.90
80279;DHT22;70683;52.492;13.416;2023-08-30T13:32:18;29.30;38.50
80279;DHT22;70683;52.492;13.416;2023-08-30T13:34:45;29.30;38.80
80279;DHT22;70683;52.492;13.416;2023-08-30T13:37:12;29.30;38.00
80279;DHT22;70683;52.492;13.416;2023-08-30T13:39:39;28.90;38.30
80279;DHT22;70683;52.492;13.416;2023-08-30T13:42:06;28.20;39.50
80279;DHT22;70683;52.492;13.416;2023-08-30T13:44:33;27.60;40.40
80279;DHT22;70683;52.492;13.416;2023-08-30T13:47:01;27.20;42.00
80279;DHT22;70683;52.492;13.416;2023-08-30T13:49:28;26.80;43.40
80279;DHT22;70683;52.492;13.416;2023-08-30T13:51:56;26.20;43.80
80279;DHT22;70683;52.492;13.416;2023-08-30T13:54:24;25.80;44.10
80279;DHT22;70683;52.492;13.416;2023-08-30T13:56:51;25.40;44.90
80279;DHT22;70683;52.492;13.416;2023-08-30T13:59:18;25.10;45.80
80279;DHT22;70683;52.492;13.416;2023-08-30T14:01:45;25.00;46.90
80279;DHT22;70683;52.492;13.416;2023-08-30T14:04:12;24.80;47.80
80279;DHT22;70683;52.492;13.416;2023-08-30T14:06:40;24.70;47.80
80279;DHT22;70683;52.492;13.416;2023-08-30T14:09:06;24.60;47.90
80279;DHT22;70683;52.492;13.416;2023-08-30T14:11:35;24.60;48.70
80279;DHT22;70683;52.492;13.416;2023-08-30T14:14:04;24.60;48.90
80279;DHT22;70683;52.492;13.416;2023-08-30T14:16:30;24.60;48.30
80279;DHT22;70683;52.492;13.416;2023-08-30T14:18:57;24.60;48.10
80279;DHT22;70683;52.492;13.416;2023-08-30T14:21:26;24.50;48.80
80279;DHT22;70683;52.492;13.416;2023-08-30T14:23:53;24.50;47.40
80279;DHT22;70683;52.492;13.416;2023-08-30T14:26:20;24.40;46.50
80279;DHT22;70683;52.492;13.416;2023-08-30T14:28:46;24.40;47.10
80279;DHT22;70683;52.492;13.416;2023-08-30T14:31:13;24.30;46.70
80279;DHT22;70683;52.492;13.416;2023-08-30T14:33:43;24.30;46.30
80279;DHT22;70683;52.492;13.416;2023-08-30T14:36:11;24.20;47.00
80279;DHT22;70683;52.492;13.416;2023-08-30T14:38:38;24.10;47.60
80279;DHT22;70683;52.492;13.416;2023-08-30T14:41:06;24.00;48.00
80279;DHT22;70683;52.492;13.416;2023-08-30T14:43:34;23.90;47.20
80279;DHT22;70683;52.492;13.416;2023-08-30T14:46:01;23.90;46.80
80279;DHT22;70683;52.492;13.416;2023-08-30T14:48:29;23.90;46.50
80279;DHT22;70683;52.492;13.416;2023-08-30T14:50:59;24.00;46.30
80279;DHT22;70683;52.492;13.416;2023-08-30T14:53:25;24.00;47.50
80279;DHT22;70683;52.492;13.416;2023-08-30T14:55:52;24.00;45.60
80279;DHT22;70683;52.492;13.416;2023-08-30T14:58:21;24.00;44.70
80279;DHT22;70683;52.492;13.416;2023-08-30T15:00:48;23.90;45.90
80279;DHT22;70683;52.492;13.416;2023-08-30T15:03:16;23.90;44.70
80279;DHT22;70683;52.492;13.416;2023-08-30T15:05:43;23.90;45.20
80279;DHT22;70683;52.492;13.416;2023-08-30T15:08:09;23.90;44.80
80279;DHT22;70683;52.492;13.416;2023-08-30T15:10:36;23.80;45.70
80279;DHT22;70683;52.492;13.416;2023-08-30T15:13:02;23.80;47.20
80279;DHT22;70683;52.492;13.416;2023-08-30T15:15:30;23.70;47.30
80279;DHT22;70683;52.492;13.416;2023-08-30T15:17:57;23.70;45.70
80279;DHT22;70683;52.492;13.416;2023-08-30T15:20:24;23.60;45.90